Williams Township, Pennsylvania
Current Conditions -  °F | °C
As of 6:51 PM on Wednesday 28 Jan 2015 (Local Time) from KABE Reporting Station
Clear Clear  
Wind Chill: 18°   Ceiling: Unl
Heat Index: 26°   Visibility: 10mi
Dew Point:   Wind: 7mph
Humidity: 34%   Direction: 340°NNW
Pressure: 30.24"   Gusts: NA
Location:  40.6369°N, 75.2272°W
Report Text: KABE 282351Z 34006KT 10SM CLR M03/M17 A3024 RMK AO2 SLP247 T10331172 11006 21033 53032
Loading
Personal Weather Stations






























Interactive Weather Map New forecast layout! Learn more

10-Day Weather Forecast

Advertisements
Track Severe Weather on mobile